Main page
METAR-TAF:

METAR-TAF

Airports :

Aeroporto di Sarzana-Luni

Sarzana, Italy

latitude: 44-05N, longitude: 009-59E, elevation: 9 m

Current weather observation

The report was made 30 minutes ago, at 10:55 UTC
Wind 3 kt from the East
Temperature 8°C
Humidity 53%
Pressure 1007 hPa
Visibility 10 km or more
no clouds below 1500 m and no cumulonimbus

METAR: LIQW 221055Z 10003KT CAVOK 08/M01 Q1007 RMK OVC OVC060 VIS MIN 9999 WIND THR18 12003KT BLU

Time: 12:25 (11:25 UTC)


TAF: missing

Weather observations and forecasts of more than 4000 airports (METAR and TAF reports).

The available stations are represented by yellow and red dots on the map.

Hover mouse over dot to see the name of the station.

Then click to see weather observations and forecasts.

To change the map : click on the green buttons with a black cross to zoom in, on the green button with a dash to zoom out, or on the green arrows for adjacent maps.


METAR-TAF: